Stoneham, Massachusetts
Current Conditions -  °F | °C
As of 5:56 PM on Thursday 23 Oct 2014 (Local Time) from KBED Reporting Station
Haze Haze  
Wind Chill: 51°   Ceiling: 600
Heat Index: 51°   Visibility: 3mi
Dew Point: 51°   Wind: 14mph
Humidity: 100%   Direction: 10°N
Pressure: 29.63"   Gusts: 23mph
Location:  42.48°N, 71.1°W
Report Text: KBED 232156Z 01012G20KT 3SM BR OVC006 11/11 A2963 RMK AO2 RAE04 SLP048 P0001 T01060106
Loading
Personal Weather Stations






























Interactive Weather Map
Tropical Storm Tracking
New forecast layout! Learn more

10-Day Weather Forecast

Advertisements
Track Severe Weather on mobile